Evergreen, Alabama
Current Conditions -  °F | °C
As of 8:53 AM on Tuesday 21 Oct 2014 (Local Time) from KGZH Reporting Station
Clear Clear  
Wind Chill: 61°   Ceiling: Unl
Heat Index: 61°   Visibility: 10mi
Dew Point: 53°   Wind: 3mph
Humidity: 75%   Direction: 330°NNW
Pressure: 30.07"   Gusts: NA
Location:  31.43°N, 86.96°W
Report Text: KGZH 211353Z AUTO 33003KT 10SM CLR 16/12 A3007 RMK AO2 SLP181 T01610117
Loading
Personal Weather Stations






























Interactive Weather Map New forecast layout! Learn more

10-Day Weather Forecast

Advertisements
Track Severe Weather on mobile